sensor_id;sensor_type;location;lat;lon;timestamp;P1;durP1;ratioP1;P2;durP2;ratioP2
36105;SDS011;22159;55.736;38.048;2024-01-27T00:00:45;3.78;;;3.47;;
36105;SDS011;22159;55.736;38.048;2024-01-27T00:03:11;4.28;;;3.45;;
36105;SDS011;22159;55.736;38.048;2024-01-27T00:05:37;4.72;;;4.13;;
36105;SDS011;22159;55.736;38.048;2024-01-27T00:08:03;4.05;;;3.22;;
36105;SDS011;22159;55.736;38.048;2024-01-27T00:10:29;5.03;;;3.70;;
36105;SDS011;22159;55.736;38.048;2024-01-27T00:12:55;3.75;;;3.20;;
36105;SDS011;22159;55.736;38.048;2024-01-27T00:15:22;4.25;;;3.42;;
36105;SDS011;22159;55.736;38.048;2024-01-27T00:17:48;4.10;;;3.47;;
36105;SDS011;22159;55.736;38.048;2024-01-27T00:20:14;4.03;;;3.63;;
36105;SDS011;22159;55.736;38.048;2024-01-27T00:22:40;4.07;;;3.35;;
36105;SDS011;22159;55.736;38.048;2024-01-27T00:25:06;3.72;;;3.42;;
36105;SDS011;22159;55.736;38.048;2024-01-27T00:27:32;3.60;;;3.30;;
36105;SDS011;22159;55.736;38.048;2024-01-27T00:29:58;4.03;;;3.63;;
36105;SDS011;22159;55.736;38.048;2024-01-27T00:32:24;3.63;;;3.08;;
36105;SDS011;22159;55.736;38.048;2024-01-27T00:34:50;4.00;;;3.42;;
36105;SDS011;22159;55.736;38.048;2024-01-27T00:37:16;4.13;;;3.15;;
36105;SDS011;22159;55.736;38.048;2024-01-27T00:39:42;3.35;;;3.05;;
36105;SDS011;22159;55.736;38.048;2024-01-27T00:42:10;4.45;;;3.25;;
36105;SDS011;22159;55.736;38.048;2024-01-27T00:44:37;3.50;;;3.20;;
36105;SDS011;22159;55.736;38.048;2024-01-27T00:47:03;4.22;;;3.38;;
36105;SDS011;22159;55.736;38.048;2024-01-27T00:49:29;4.45;;;3.80;;
36105;SDS011;22159;55.736;38.048;2024-01-27T00:51:55;3.83;;;3.03;;
36105;SDS011;22159;55.736;38.048;2024-01-27T00:54:21;3.17;;;2.88;;
36105;SDS011;22159;55.736;38.048;2024-01-27T00:56:47;3.42;;;3.08;;
36105;SDS011;22159;55.736;38.048;2024-01-27T00:59:13;3.80;;;3.47;;
36105;SDS011;22159;55.736;38.048;2024-01-27T01:01:40;3.03;;;2.70;;
36105;SDS011;22159;55.736;38.048;2024-01-27T01:04:06;3.33;;;3.03;;
36105;SDS011;22159;55.736;38.048;2024-01-27T01:06:32;3.10;;;2.80;;
36105;SDS011;22159;55.736;38.048;2024-01-27T01:08:58;3.63;;;3.10;;
36105;SDS011;22159;55.736;38.048;2024-01-27T01:11:24;3.47;;;3.17;;
36105;SDS011;22159;55.736;38.048;2024-01-27T01:13:50;3.38;;;3.03;;
36105;SDS011;22159;55.736;38.048;2024-01-27T01:16:16;3.63;;;3.28;;
36105;SDS011;22159;55.736;38.048;2024-01-27T01:18:42;4.50;;;3.00;;
36105;SDS011;22159;55.736;38.048;2024-01-27T01:21:08;3.35;;;3.05;;
36105;SDS011;22159;55.736;38.048;2024-01-27T01:23:34;3.70;;;2.72;;
36105;SDS011;22159;55.736;38.048;2024-01-27T01:26:00;3.55;;;3.15;;
36105;SDS011;22159;55.736;38.048;2024-01-27T01:28:26;3.72;;;2.90;;
36105;SDS011;22159;55.736;38.048;2024-01-27T01:30:53;3.03;;;2.78;;
36105;SDS011;22159;55.736;38.048;2024-01-27T01:33:19;2.97;;;2.67;;
36105;SDS011;22159;55.736;38.048;2024-01-27T01:35:45;3.05;;;2.67;;
36105;SDS011;22159;55.736;38.048;2024-01-27T01:38:11;3.15;;;2.90;;
36105;SDS011;22159;55.736;38.048;2024-01-27T01:40:37;2.90;;;2.63;;
36105;SDS011;22159;55.736;38.048;2024-01-27T01:43:04;3.08;;;2.70;;
36105;SDS011;22159;55.736;38.048;2024-01-27T01:45:34;3.13;;;2.83;;
36105;SDS011;22159;55.736;38.048;2024-01-27T01:48:01;3.35;;;2.90;;
36105;SDS011;22159;55.736;38.048;2024-01-27T01:50:27;3.63;;;3.10;;
36105;SDS011;22159;55.736;38.048;2024-01-27T01:52:53;2.92;;;2.63;;
36105;SDS011;22159;55.736;38.048;2024-01-27T01:55:19;3.28;;;2.50;;
36105;SDS011;22159;55.736;38.048;2024-01-27T01:57:45;2.63;;;2.42;;
36105;SDS011;22159;55.736;38.048;2024-01-27T02:00:12;2.95;;;2.63;;
36105;SDS011;22159;55.736;38.048;2024-01-27T02:02:38;3.33;;;2.75;;
36105;SDS011;22159;55.736;38.048;2024-01-27T02:05:04;3.25;;;2.95;;
36105;SDS011;22159;55.736;38.048;2024-01-27T02:07:30;2.60;;;2.40;;
36105;SDS011;22159;55.736;38.048;2024-01-27T02:09:56;3.00;;;2.80;;
36105;SDS011;22159;55.736;38.048;2024-01-27T02:12:23;2.60;;;2.40;;
36105;SDS011;22159;55.736;38.048;2024-01-27T02:14:49;3.20;;;2.88;;
36105;SDS011;22159;55.736;38.048;2024-01-27T02:17:14;2.65;;;2.45;;
36105;SDS011;22159;55.736;38.048;2024-01-27T02:19:40;2.53;;;2.33;;
36105;SDS011;22159;55.736;38.048;2024-01-27T02:22:06;3.03;;;2.67;;
36105;SDS011;22159;55.736;38.048;2024-01-27T02:24:32;2.72;;;2.50;;
36105;SDS011;22159;55.736;38.048;2024-01-27T02:26:58;2.72;;;2.53;;
36105;SDS011;22159;55.736;38.048;2024-01-27T02:29:24;2.55;;;2.28;;
36105;SDS011;22159;55.736;38.048;2024-01-27T02:31:52;3.15;;;2.65;;
36105;SDS011;22159;55.736;38.048;2024-01-27T02:34:18;2.88;;;2.63;;
36105;SDS011;22159;55.736;38.048;2024-01-27T02:36:44;2.72;;;2.53;;
36105;SDS011;22159;55.736;38.048;2024-01-27T02:39:10;3.00;;;2.70;;
36105;SDS011;22159;55.736;38.048;2024-01-27T02:41:36;2.60;;;2.40;;
36105;SDS011;22159;55.736;38.048;2024-01-27T02:44:04;2.75;;;2.50;;
36105;SDS011;22159;55.736;38.048;2024-01-27T02:46:30;2.47;;;2.28;;
36105;SDS011;22159;55.736;38.048;2024-01-27T02:48:56;2.40;;;2.20;;
36105;SDS011;22159;55.736;38.048;2024-01-27T02:51:22;2.60;;;2.40;;
36105;SDS011;22159;55.736;38.048;2024-01-27T02:53:49;2.60;;;2.40;;
36105;SDS011;22159;55.736;38.048;2024-01-27T02:56:17;2.92;;;2.55;;
36105;SDS011;22159;55.736;38.048;2024-01-27T02:58:43;2.60;;;2.40;;
36105;SDS011;22159;55.736;38.048;2024-01-27T03:01:09;2.30;;;2.10;;
36105;SDS011;22159;55.736;38.048;2024-01-27T03:03:35;3.35;;;2.40;;
36105;SDS011;22159;55.736;38.048;2024-01-27T03:06:01;2.33;;;2.13;;
36105;SDS011;22159;55.736;38.048;2024-01-27T03:08:27;2.33;;;2.13;;
36105;SDS011;22159;55.736;38.048;2024-01-27T03:10:53;3.28;;;2.30;;
36105;SDS011;22159;55.736;38.048;2024-01-27T03:13:19;2.70;;;2.50;;
36105;SDS011;22159;55.736;38.048;2024-01-27T03:15:46;2.47;;;2.20;;
36105;SDS011;22159;55.736;38.048;2024-01-27T03:18:12;2.75;;;2.55;;
36105;SDS011;22159;55.736;38.048;2024-01-27T03:20:38;2.50;;;2.30;;
36105;SDS011;22159;55.736;38.048;2024-01-27T03:23:04;2.50;;;2.20;;
36105;SDS011;22159;55.736;38.048;2024-01-27T03:25:30;3.58;;;2.33;;
36105;SDS011;22159;55.736;38.048;2024-01-27T03:27:56;2.60;;;2.35;;
36105;SDS011;22159;55.736;38.048;2024-01-27T03:30:22;3.20;;;2.40;;
36105;SDS011;22159;55.736;38.048;2024-01-27T03:32:48;3.08;;;2.78;;
36105;SDS011;22159;55.736;38.048;2024-01-27T03:35:14;2.28;;;2.00;;
36105;SDS011;22159;55.736;38.048;2024-01-27T03:37:40;3.47;;;2.40;;
36105;SDS011;22159;55.736;38.048;2024-01-27T03:40:06;2.55;;;2.35;;
36105;SDS011;22159;55.736;38.048;2024-01-27T03:42:32;2.63;;;2.20;;
36105;SDS011;22159;55.736;38.048;2024-01-27T03:44:58;3.05;;;2.05;;
36105;SDS011;22159;55.736;38.048;2024-01-27T03:47:24;3.70;;;2.38;;
36105;SDS011;22159;55.736;38.048;2024-01-27T03:49:50;4.10;;;2.80;;
36105;SDS011;22159;55.736;38.048;2024-01-27T03:52:16;3.85;;;2.45;;
36105;SDS011;22159;55.736;38.048;2024-01-27T03:54:42;2.55;;;2.35;;
36105;SDS011;22159;55.736;38.048;2024-01-27T03:57:08;2.85;;;2.38;;
36105;SDS011;22159;55.736;38.048;2024-01-27T03:59:34;2.75;;;2.10;;
36105;SDS011;22159;55.736;38.048;2024-01-27T04:02:00;3.63;;;2.63;;
36105;SDS011;22159;55.736;38.048;2024-01-27T04:04:26;3.42;;;2.70;;
36105;SDS011;22159;55.736;38.048;2024-01-27T04:06:52;2.70;;;2.30;;
36105;SDS011;22159;55.736;38.048;2024-01-27T04:09:18;3.33;;;2.20;;
36105;SDS011;22159;55.736;38.048;2024-01-27T04:11:44;4.10;;;2.20;;
36105;SDS011;22159;55.736;38.048;2024-01-27T04:14:10;3.00;;;2.30;;
36105;SDS011;22159;55.736;38.048;2024-01-27T04:16:36;2.50;;;2.30;;
36105;SDS011;22159;55.736;38.048;2024-01-27T04:19:02;2.83;;;2.22;;
36105;SDS011;22159;55.736;38.048;2024-01-27T04:21:29;4.15;;;2.30;;
36105;SDS011;22159;55.736;38.048;2024-01-27T04:23:55;2.25;;;2.05;;
36105;SDS011;22159;55.736;38.048;2024-01-27T04:26:21;2.40;;;2.20;;
36105;SDS011;22159;55.736;38.048;2024-01-27T04:28:47;2.95;;;2.20;;
36105;SDS011;22159;55.736;38.048;2024-01-27T04:31:13;2.47;;;2.28;;
36105;SDS011;22159;55.736;38.048;2024-01-27T04:33:39;2.47;;;2.03;;
36105;SDS011;22159;55.736;38.048;2024-01-27T04:36:05;3.03;;;2.20;;
36105;SDS011;22159;55.736;38.048;2024-01-27T04:38:35;2.38;;;2.17;;
36105;SDS011;22159;55.736;38.048;2024-01-27T04:41:01;2.58;;;2.30;;
36105;SDS011;22159;55.736;38.048;2024-01-27T04:43:27;2.80;;;2.00;;
36105;SDS011;22159;55.736;38.048;2024-01-27T04:45:54;3.20;;;2.08;;
36105;SDS011;22159;55.736;38.048;2024-01-27T04:48:20;2.60;;;1.88;;
36105;SDS011;22159;55.736;38.048;2024-01-27T04:50:46;2.17;;;1.98;;
36105;SDS011;22159;55.736;38.048;2024-01-27T04:53:13;2.67;;;2.00;;
36105;SDS011;22159;55.736;38.048;2024-01-27T04:55:39;3.13;;;2.28;;
36105;SDS011;22159;55.736;38.048;2024-01-27T04:58:06;2.22;;;2.03;;
36105;SDS011;22159;55.736;38.048;2024-01-27T05:00:32;2.30;;;2.10;;
36105;SDS011;22159;55.736;38.048;2024-01-27T05:02:58;3.08;;;1.80;;
36105;SDS011;22159;55.736;38.048;2024-01-27T05:05:28;3.63;;;1.98;;
36105;SDS011;22159;55.736;38.048;2024-01-27T05:07:54;2.20;;;2.00;;
36105;SDS011;22159;55.736;38.048;2024-01-27T05:10:20;2.60;;;1.80;;
36105;SDS011;22159;55.736;38.048;2024-01-27T05:12:47;2.83;;;2.00;;
36105;SDS011;22159;55.736;38.048;2024-01-27T05:15:13;2.42;;;1.90;;
36105;SDS011;22159;55.736;38.048;2024-01-27T05:17:39;2.28;;;1.80;;
36105;SDS011;22159;55.736;38.048;2024-01-27T05:20:06;2.67;;;2.05;;
36105;SDS011;22159;55.736;38.048;2024-01-27T05:22:32;2.70;;;2.00;;
36105;SDS011;22159;55.736;38.048;2024-01-27T05:24:58;2.10;;;1.80;;
36105;SDS011;22159;55.736;38.048;2024-01-27T05:27:24;2.30;;;2.10;;
36105;SDS011;22159;55.736;38.048;2024-01-27T05:29:50;2.45;;;2.00;;
36105;SDS011;22159;55.736;38.048;2024-01-27T05:32:16;2.53;;;2.03;;
36105;SDS011;22159;55.736;38.048;2024-01-27T05:34:42;2.50;;;2.22;;
36105;SDS011;22159;55.736;38.048;2024-01-27T05:37:08;3.58;;;2.15;;
36105;SDS011;22159;55.736;38.048;2024-01-27T05:39:34;1.90;;;1.77;;
36105;SDS011;22159;55.736;38.048;2024-01-27T05:42:00;2.47;;;2.25;;
36105;SDS011;22159;55.736;38.048;2024-01-27T05:44:26;2.10;;;1.90;;
36105;SDS011;22159;55.736;38.048;2024-01-27T05:46:52;2.95;;;1.92;;
36105;SDS011;22159;55.736;38.048;2024-01-27T05:49:18;1.60;;;1.50;;
36105;SDS011;22159;55.736;38.048;2024-01-27T05:51:44;2.30;;;2.10;;
36105;SDS011;22159;55.736;38.048;2024-01-27T05:54:10;5.63;;;2.10;;
36105;SDS011;22159;55.736;38.048;2024-01-27T05:56:39;2.10;;;1.90;;
36105;SDS011;22159;55.736;38.048;2024-01-27T05:59:05;2.72;;;1.80;;
36105;SDS011;22159;55.736;38.048;2024-01-27T06:01:32;2.50;;;2.13;;
36105;SDS011;22159;55.736;38.048;2024-01-27T06:03:58;3.92;;;2.30;;
36105;SDS011;22159;55.736;38.048;2024-01-27T06:06:24;2.30;;;2.08;;
36105;SDS011;22159;55.736;38.048;2024-01-27T06:08:49;2.85;;;2.00;;
36105;SDS011;22159;55.736;38.048;2024-01-27T06:11:22;4.20;;;2.03;;
36105;SDS011;22159;55.736;38.048;2024-01-27T06:13:49;3.95;;;2.20;;
36105;SDS011;22159;55.736;38.048;2024-01-27T06:16:17;2.67;;;2.22;;
36105;SDS011;22159;55.736;38.048;2024-01-27T06:18:44;2.63;;;1.98;;
36105;SDS011;22159;55.736;38.048;2024-01-27T06:21:10;2.85;;;2.38;;
36105;SDS011;22159;55.736;38.048;2024-01-27T06:23:36;2.92;;;2.42;;
36105;SDS011;22159;55.736;38.048;2024-01-27T06:26:06;2.80;;;2.50;;
36105;SDS011;22159;55.736;38.048;2024-01-27T06:28:32;3.03;;;2.17;;
36105;SDS011;22159;55.736;38.048;2024-01-27T06:30:59;2.40;;;2.08;;
36105;SDS011;22159;55.736;38.048;2024-01-27T06:33:25;2.63;;;1.98;;
36105;SDS011;22159;55.736;38.048;2024-01-27T06:35:51;2.28;;;2.08;;
36105;SDS011;22159;55.736;38.048;2024-01-27T06:38:17;2.10;;;1.90;;
36105;SDS011;22159;55.736;38.048;2024-01-27T06:40:43;2.33;;;1.90;;
36105;SDS011;22159;55.736;38.048;2024-01-27T06:43:11;2.20;;;1.88;;
36105;SDS011;22159;55.736;38.048;2024-01-27T06:45:37;2.38;;;2.17;;
36105;SDS011;22159;55.736;38.048;2024-01-27T06:48:04;2.60;;;2.10;;
36105;SDS011;22159;55.736;38.048;2024-01-27T06:50:30;2.50;;;1.88;;
36105;SDS011;22159;55.736;38.048;2024-01-27T06:52:56;2.10;;;1.70;;
36105;SDS011;22159;55.736;38.048;2024-01-27T06:55:22;1.85;;;1.60;;
36105;SDS011;22159;55.736;38.048;2024-01-27T06:57:48;2.75;;;1.83;;
36105;SDS011;22159;55.736;38.048;2024-01-27T07:00:14;2.47;;;1.80;;
36105;SDS011;22159;55.736;38.048;2024-01-27T07:02:40;2.50;;;2.13;;
36105;SDS011;22159;55.736;38.048;2024-01-27T07:05:09;2.38;;;2.05;;
36105;SDS011;22159;55.736;38.048;2024-01-27T07:07:35;2.22;;;1.92;;
36105;SDS011;22159;55.736;38.048;2024-01-27T07:10:01;2.30;;;2.10;;
36105;SDS011;22159;55.736;38.048;2024-01-27T07:12:28;2.20;;;1.90;;
36105;SDS011;22159;55.736;38.048;2024-01-27T07:14:54;3.15;;;2.10;;
36105;SDS011;22159;55.736;38.048;2024-01-27T07:17:20;2.33;;;2.05;;
36105;SDS011;22159;55.736;38.048;2024-01-27T07:19:46;2.17;;;1.95;;
36105;SDS011;22159;55.736;38.048;2024-01-27T07:22:12;2.83;;;2.00;;
36105;SDS011;22159;55.736;38.048;2024-01-27T07:24:38;2.28;;;1.80;;
36105;SDS011;22159;55.736;38.048;2024-01-27T07:27:04;2.35;;;2.00;;
36105;SDS011;22159;55.736;38.048;2024-01-27T07:29:30;2.20;;;2.00;;
36105;SDS011;22159;55.736;38.048;2024-01-27T07:31:56;3.58;;;2.53;;
36105;SDS011;22159;55.736;38.048;2024-01-27T07:34:22;2.25;;;2.00;;
36105;SDS011;22159;55.736;38.048;2024-01-27T07:36:48;2.72;;;1.85;;
36105;SDS011;22159;55.736;38.048;2024-01-27T07:39:14;2.90;;;2.13;;
36105;SDS011;22159;55.736;38.048;2024-01-27T07:41:40;3.17;;;2.10;;
36105;SDS011;22159;55.736;38.048;2024-01-27T07:44:08;2.22;;;2.03;;
36105;SDS011;22159;55.736;38.048;2024-01-27T07:46:37;2.42;;;2.22;;
36105;SDS011;22159;55.736;38.048;2024-01-27T07:49:03;2.60;;;2.40;;
36105;SDS011;22159;55.736;38.048;2024-01-27T07:51:30;2.53;;;2.33;;
36105;SDS011;22159;55.736;38.048;2024-01-27T07:53:56;3.38;;;2.47;;
36105;SDS011;22159;55.736;38.048;2024-01-27T07:56:22;2.40;;;2.20;;
36105;SDS011;22159;55.736;38.048;2024-01-27T07:58:48;6.30;;;2.13;;
36105;SDS011;22159;55.736;38.048;2024-01-27T08:01:14;2.17;;;1.77;;
36105;SDS011;22159;55.736;38.048;2024-01-27T08:03:41;3.35;;;2.20;;
36105;SDS011;22159;55.736;38.048;2024-01-27T08:06:10;3.13;;;2.25;;
36105;SDS011;22159;55.736;38.048;2024-01-27T08:08:36;2.25;;;1.77;;
36105;SDS011;22159;55.736;38.048;2024-01-27T08:11:02;2.30;;;2.10;;
36105;SDS011;22159;55.736;38.048;2024-01-27T08:13:28;3.88;;;2.03;;
36105;SDS011;22159;55.736;38.048;2024-01-27T08:15:54;2.70;;;1.75;;
36105;SDS011;22159;55.736;38.048;2024-01-27T08:18:20;2.63;;;2.33;;
36105;SDS011;22159;55.736;38.048;2024-01-27T08:20:46;2.38;;;2.17;;
36105;SDS011;22159;55.736;38.048;2024-01-27T08:23:12;2.50;;;2.13;;
36105;SDS011;22159;55.736;38.048;2024-01-27T08:25:38;2.67;;;2.10;;
36105;SDS011;22159;55.736;38.048;2024-01-27T08:28:04;2.85;;;2.35;;
36105;SDS011;22159;55.736;38.048;2024-01-27T08:30:30;3.22;;;2.20;;
36105;SDS011;22159;55.736;38.048;2024-01-27T08:32:56;2.63;;;2.20;;
36105;SDS011;22159;55.736;38.048;2024-01-27T08:35:22;2.30;;;2.10;;
36105;SDS011;22159;55.736;38.048;2024-01-27T08:37:48;4.45;;;2.40;;
36105;SDS011;22159;55.736;38.048;2024-01-27T08:40:15;2.20;;;2.00;;
36105;SDS011;22159;55.736;38.048;2024-01-27T08:42:42;2.40;;;2.20;;
36105;SDS011;22159;55.736;38.048;2024-01-27T08:45:08;2.03;;;1.83;;
36105;SDS011;22159;55.736;38.048;2024-01-27T08:47:34;2.67;;;2.10;;
36105;SDS011;22159;55.736;38.048;2024-01-27T08:50:01;2.33;;;2.13;;
36105;SDS011;22159;55.736;38.048;2024-01-27T08:52:27;2.20;;;2.00;;
36105;SDS011;22159;55.736;38.048;2024-01-27T08:54:53;2.50;;;2.30;;
36105;SDS011;22159;55.736;38.048;2024-01-27T08:57:19;2.10;;;1.90;;
36105;SDS011;22159;55.736;38.048;2024-01-27T08:59:45;2.58;;;2.08;;
36105;SDS011;22159;55.736;38.048;2024-01-27T09:02:11;2.20;;;2.00;;
36105;SDS011;22159;55.736;38.048;2024-01-27T09:04:37;3.20;;;2.40;;
36105;SDS011;22159;55.736;38.048;2024-01-27T09:07:03;2.63;;;2.17;;
36105;SDS011;22159;55.736;38.048;2024-01-27T09:09:29;2.95;;;2.10;;
36105;SDS011;22159;55.736;38.048;2024-01-27T09:11:55;2.20;;;1.90;;
36105;SDS011;22159;55.736;38.048;2024-01-27T09:14:22;2.40;;;2.13;;
36105;SDS011;22159;55.736;38.048;2024-01-27T09:16:48;2.30;;;2.10;;
36105;SDS011;22159;55.736;38.048;2024-01-27T09:19:14;3.80;;;2.47;;
36105;SDS011;22159;55.736;38.048;2024-01-27T09:21:40;2.28;;;2.08;;
36105;SDS011;22159;55.736;38.048;2024-01-27T09:24:06;3.15;;;2.40;;
36105;SDS011;22159;55.736;38.048;2024-01-27T09:26:32;3.05;;;2.10;;
36105;SDS011;22159;55.736;38.048;2024-01-27T09:28:58;2.65;;;2.30;;
36105;SDS011;22159;55.736;38.048;2024-01-27T09:31:24;2.60;;;2.40;;
36105;SDS011;22159;55.736;38.048;2024-01-27T09:33:51;2.60;;;2.40;;
36105;SDS011;22159;55.736;38.048;2024-01-27T09:36:17;2.38;;;2.17;;
36105;SDS011;22159;55.736;38.048;2024-01-27T09:38:43;2.25;;;2.05;;
36105;SDS011;22159;55.736;38.048;2024-01-27T09:41:10;2.45;;;2.25;;
36105;SDS011;22159;55.736;38.048;2024-01-27T09:43:37;2.83;;;2.40;;
36105;SDS011;22159;55.736;38.048;2024-01-27T09:46:03;2.60;;;2.40;;
36105;SDS011;22159;55.736;38.048;2024-01-27T09:48:29;2.17;;;1.98;;
36105;SDS011;22159;55.736;38.048;2024-01-27T09:50:58;2.50;;;2.30;;
36105;SDS011;22159;55.736;38.048;2024-01-27T09:53:24;2.38;;;2.17;;
36105;SDS011;22159;55.736;38.048;2024-01-27T09:55:50;2.53;;;2.33;;
36105;SDS011;22159;55.736;38.048;2024-01-27T09:58:16;4.50;;;2.63;;
36105;SDS011;22159;55.736;38.048;2024-01-27T10:00:43;3.72;;;2.58;;
36105;SDS011;22159;55.736;38.048;2024-01-27T10:03:10;3.97;;;2.95;;
36105;SDS011;22159;55.736;38.048;2024-01-27T10:05:36;3.15;;;2.58;;
36105;SDS011;22159;55.736;38.048;2024-01-27T10:08:05;2.60;;;2.40;;
36105;SDS011;22159;55.736;38.048;2024-01-27T10:10:33;3.17;;;2.70;;
36105;SDS011;22159;55.736;38.048;2024-01-27T10:12:59;2.45;;;2.25;;
36105;SDS011;22159;55.736;38.048;2024-01-27T10:15:27;3.30;;;2.30;;
36105;SDS011;22159;55.736;38.048;2024-01-27T10:18:03;4.80;;;2.47;;
36105;SDS011;22159;55.736;38.048;2024-01-27T10:20:30;2.80;;;2.53;;
36105;SDS011;22159;55.736;38.048;2024-01-27T10:22:56;2.83;;;2.47;;
36105;SDS011;22159;55.736;38.048;2024-01-27T10:25:22;2.95;;;2.38;;
36105;SDS011;22159;55.736;38.048;2024-01-27T10:27:48;5.00;;;2.58;;
36105;SDS011;22159;55.736;38.048;2024-01-27T10:30:15;2.88;;;2.33;;
36105;SDS011;22159;55.736;38.048;2024-01-27T10:32:54;2.53;;;2.33;;
36105;SDS011;22159;55.736;38.048;2024-01-27T10:35:21;4.15;;;2.65;;
36105;SDS011;22159;55.736;38.048;2024-01-27T10:37:51;3.45;;;2.33;;
36105;SDS011;22159;55.736;38.048;2024-01-27T10:40:18;2.90;;;2.70;;
36105;SDS011;22159;55.736;38.048;2024-01-27T10:42:44;2.22;;;2.10;;
36105;SDS011;22159;55.736;38.048;2024-01-27T10:45:11;2.58;;;2.38;;
36105;SDS011;22159;55.736;38.048;2024-01-27T10:47:38;3.03;;;2.33;;
36105;SDS011;22159;55.736;38.048;2024-01-27T10:50:08;2.90;;;2.38;;
36105;SDS011;22159;55.736;38.048;2024-01-27T10:52:37;2.50;;;2.30;;
36105;SDS011;22159;55.736;38.048;2024-01-27T10:55:06;2.50;;;2.28;;
36105;SDS011;22159;55.736;38.048;2024-01-27T10:57:33;2.97;;;2.38;;
36105;SDS011;22159;55.736;38.048;2024-01-27T11:00:05;4.40;;;2.55;;
36105;SDS011;22159;55.736;38.048;2024-01-27T11:02:33;2.90;;;2.60;;
36105;SDS011;22159;55.736;38.048;2024-01-27T11:05:02;3.20;;;2.20;;
36105;SDS011;22159;55.736;38.048;2024-01-27T11:07:29;2.58;;;2.35;;
36105;SDS011;22159;55.736;38.048;2024-01-27T11:09:56;3.20;;;2.80;;
36105;SDS011;22159;55.736;38.048;2024-01-27T11:12:22;2.35;;;2.15;;
36105;SDS011;22159;55.736;38.048;2024-01-27T11:14:49;2.65;;;2.45;;
36105;SDS011;22159;55.736;38.048;2024-01-27T11:17:16;4.57;;;2.80;;
36105;SDS011;22159;55.736;38.048;2024-01-27T11:19:44;2.90;;;2.50;;
36105;SDS011;22159;55.736;38.048;2024-01-27T11:22:44;3.45;;;2.75;;
36105;SDS011;22159;55.736;38.048;2024-01-27T11:27:36;3.78;;;2.20;;
36105;SDS011;22159;55.736;38.048;2024-01-27T11:30:03;4.72;;;2.60;;
36105;SDS011;22159;55.736;38.048;2024-01-27T11:32:30;3.65;;;2.58;;
36105;SDS011;22159;55.736;38.048;2024-01-27T11:34:56;3.05;;;2.63;;
36105;SDS011;22159;55.736;38.048;2024-01-27T11:37:22;3.28;;;2.75;;
36105;SDS011;22159;55.736;38.048;2024-01-27T11:39:51;4.20;;;2.38;;
36105;SDS011;22159;55.736;38.048;2024-01-27T11:42:18;4.53;;;2.38;;
36105;SDS011;22159;55.736;38.048;2024-01-27T11:44:44;3.88;;;2.85;;
36105;SDS011;22159;55.736;38.048;2024-01-27T11:47:14;5.20;;;2.60;;
36105;SDS011;22159;55.736;38.048;2024-01-27T11:49:41;5.68;;;3.03;;
36105;SDS011;22159;55.736;38.048;2024-01-27T11:52:07;6.60;;;2.83;;
36105;SDS011;22159;55.736;38.048;2024-01-27T11:54:33;5.38;;;3.10;;
36105;SDS011;22159;55.736;38.048;2024-01-27T11:57:01;4.78;;;2.70;;
36105;SDS011;22159;55.736;38.048;2024-01-27T11:59:27;7.60;;;2.92;;
36105;SDS011;22159;55.736;38.048;2024-01-27T12:01:53;5.75;;;2.80;;
36105;SDS011;22159;55.736;38.048;2024-01-27T12:04:19;5.95;;;2.92;;
36105;SDS011;22159;55.736;38.048;2024-01-27T12:06:46;6.85;;;2.92;;
36105;SDS011;22159;55.736;38.048;2024-01-27T12:09:12;5.72;;;2.58;;
36105;SDS011;22159;55.736;38.048;2024-01-27T12:11:41;6.00;;;2.80;;
36105;SDS011;22159;55.736;38.048;2024-01-27T12:14:08;6.38;;;2.63;;
36105;SDS011;22159;55.736;38.048;2024-01-27T12:16:34;4.97;;;2.42;;
36105;SDS011;22159;55.736;38.048;2024-01-27T12:19:00;4.88;;;2.50;;
36105;SDS011;22159;55.736;38.048;2024-01-27T12:21:26;2.90;;;2.60;;
36105;SDS011;22159;55.736;38.048;2024-01-27T12:23:54;5.18;;;2.30;;
36105;SDS011;22159;55.736;38.048;2024-01-27T12:26:21;6.50;;;2.42;;
36105;SDS011;22159;55.736;38.048;2024-01-27T12:28:47;4.07;;;3.00;;
36105;SDS011;22159;55.736;38.048;2024-01-27T12:31:17;3.88;;;2.60;;
36105;SDS011;22159;55.736;38.048;2024-01-27T12:33:50;4.20;;;2.53;;
36105;SDS011;22159;55.736;38.048;2024-01-27T12:36:17;4.50;;;2.50;;
36105;SDS011;22159;55.736;38.048;2024-01-27T12:38:46;5.22;;;2.70;;
36105;SDS011;22159;55.736;38.048;2024-01-27T12:41:12;4.97;;;2.67;;
36105;SDS011;22159;55.736;38.048;2024-01-27T12:43:38;3.08;;;2.30;;
36105;SDS011;22159;55.736;38.048;2024-01-27T12:46:04;3.28;;;2.55;;
36105;SDS011;22159;55.736;38.048;2024-01-27T12:48:31;2.78;;;2.38;;
36105;SDS011;22159;55.736;38.048;2024-01-27T12:50:57;3.80;;;2.70;;
36105;SDS011;22159;55.736;38.048;2024-01-27T12:53:23;4.40;;;2.63;;
36105;SDS011;22159;55.736;38.048;2024-01-27T12:55:49;4.05;;;2.97;;
36105;SDS011;22159;55.736;38.048;2024-01-27T12:58:15;3.22;;;2.50;;
36105;SDS011;22159;55.736;38.048;2024-01-27T13:00:41;4.78;;;2.30;;
36105;SDS011;22159;55.736;38.048;2024-01-27T13:03:07;5.65;;;2.85;;
36105;SDS011;22159;55.736;38.048;2024-01-27T13:05:34;2.38;;;2.17;;
36105;SDS011;22159;55.736;38.048;2024-01-27T13:08:00;3.72;;;2.58;;
36105;SDS011;22159;55.736;38.048;2024-01-27T13:10:26;3.50;;;2.35;;
36105;SDS011;22159;55.736;38.048;2024-01-27T13:12:52;3.35;;;2.40;;
36105;SDS011;22159;55.736;38.048;2024-01-27T13:15:18;2.90;;;2.47;;
36105;SDS011;22159;55.736;38.048;2024-01-27T13:17:45;2.53;;;2.33;;
36105;SDS011;22159;55.736;38.048;2024-01-27T13:20:11;3.17;;;2.28;;
36105;SDS011;22159;55.736;38.048;2024-01-27T13:22:37;3.83;;;2.45;;
36105;SDS011;22159;55.736;38.048;2024-01-27T13:25:03;3.05;;;2.38;;
36105;SDS011;22159;55.736;38.048;2024-01-27T13:27:30;4.75;;;2.50;;
36105;SDS011;22159;55.736;38.048;2024-01-27T13:29:59;4.25;;;2.50;;
36105;SDS011;22159;55.736;38.048;2024-01-27T13:32:25;2.88;;;2.47;;
36105;SDS011;22159;55.736;38.048;2024-01-27T13:34:51;2.78;;;2.33;;
36105;SDS011;22159;55.736;38.048;2024-01-27T13:37:18;3.88;;;2.58;;
36105;SDS011;22159;55.736;38.048;2024-01-27T13:39:44;5.32;;;2.20;;
36105;SDS011;22159;55.736;38.048;2024-01-27T13:42:10;2.97;;;2.33;;
36105;SDS011;22159;55.736;38.048;2024-01-27T13:44:36;3.33;;;2.90;;
36105;SDS011;22159;55.736;38.048;2024-01-27T13:47:03;4.45;;;2.67;;
36105;SDS011;22159;55.736;38.048;2024-01-27T13:49:30;2.53;;;2.33;;
36105;SDS011;22159;55.736;38.048;2024-01-27T13:51:56;2.67;;;2.30;;
36105;SDS011;22159;55.736;38.048;2024-01-27T13:54:23;3.08;;;2.58;;
36105;SDS011;22159;55.736;38.048;2024-01-27T13:56:49;4.00;;;2.95;;
36105;SDS011;22159;55.736;38.048;2024-01-27T13:59:15;4.32;;;2.97;;
36105;SDS011;22159;55.736;38.048;2024-01-27T14:01:41;6.57;;;3.00;;
36105;SDS011;22159;55.736;38.048;2024-01-27T14:04:07;6.28;;;2.85;;
36105;SDS011;22159;55.736;38.048;2024-01-27T14:06:34;4.03;;;2.65;;
36105;SDS011;22159;55.736;38.048;2024-01-27T14:09:01;4.28;;;2.72;;
36105;SDS011;22159;55.736;38.048;2024-01-27T14:11:28;4.82;;;3.20;;
36105;SDS011;22159;55.736;38.048;2024-01-27T14:13:54;7.20;;;3.38;;
36105;SDS011;22159;55.736;38.048;2024-01-27T14:16:20;6.75;;;3.10;;
36105;SDS011;22159;55.736;38.048;2024-01-27T14:18:47;5.30;;;3.47;;
36105;SDS011;22159;55.736;38.048;2024-01-27T14:21:13;7.18;;;3.35;;
36105;SDS011;22159;55.736;38.048;2024-01-27T14:23:40;7.40;;;3.92;;
36105;SDS011;22159;55.736;38.048;2024-01-27T14:26:06;5.63;;;3.80;;
36105;SDS011;22159;55.736;38.048;2024-01-27T14:28:39;6.05;;;3.63;;
36105;SDS011;22159;55.736;38.048;2024-01-27T14:31:06;9.65;;;3.92;;